sensor_id;sensor_type;location;lat;lon;timestamp;P1;durP1;ratioP1;P2;durP2;ratioP2
73421;SDS011;61637;47.760;-122.022;2022-12-07T00:00:00;5.8;;;3.0;;
73421;SDS011;61637;47.760;-122.022;2022-12-07T00:02:01;35.3;;;3.3;;
73421;SDS011;61637;47.760;-122.022;2022-12-07T00:04:02;7.5;;;2.6;;
73421;SDS011;61637;47.760;-122.022;2022-12-07T00:06:02;12.7;;;2.7;;
73421;SDS011;61637;47.760;-122.022;2022-12-07T00:08:00;8.2;;;3.9;;
73421;SDS011;61637;47.760;-122.022;2022-12-07T00:10:01;6.5;;;5.1;;
73421;SDS011;61637;47.760;-122.022;2022-12-07T00:12:01;5.7;;;4.3;;
73421;SDS011;61637;47.760;-122.022;2022-12-07T00:14:03;7.0;;;5.6;;
73421;SDS011;61637;47.760;-122.022;2022-12-07T00:16:02;8.3;;;6.0;;
73421;SDS011;61637;47.760;-122.022;2022-12-07T00:18:01;12.2;;;10.3;;
73421;SDS011;61637;47.760;-122.022;2022-12-07T00:20:00;13.4;;;12.0;;
73421;SDS011;61637;47.760;-122.022;2022-12-07T00:22:01;16.3;;;11.8;;
73421;SDS011;61637;47.760;-122.022;2022-12-07T00:24:01;19.7;;;12.3;;
73421;SDS011;61637;47.760;-122.022;2022-12-07T00:26:04;12.7;;;11.6;;
73421;SDS011;61637;47.760;-122.022;2022-12-07T00:28:00;13.8;;;12.6;;
73421;SDS011;61637;47.760;-122.022;2022-12-07T00:30:01;15.3;;;14.0;;
73421;SDS011;61637;47.760;-122.022;2022-12-07T00:32:00;15.5;;;14.2;;
73421;SDS011;61637;47.760;-122.022;2022-12-07T00:34:01;14.7;;;13.4;;
73421;SDS011;61637;47.760;-122.022;2022-12-07T00:36:01;15.2;;;13.9;;
73421;SDS011;61637;47.760;-122.022;2022-12-07T00:38:00;15.1;;;13.8;;
73421;SDS011;61637;47.760;-122.022;2022-12-07T00:40:00;15.5;;;14.1;;
73421;SDS011;61637;47.760;-122.022;2022-12-07T00:42:01;15.8;;;14.5;;
73421;SDS011;61637;47.760;-122.022;2022-12-07T00:44:00;17.2;;;15.7;;
73421;SDS011;61637;47.760;-122.022;2022-12-07T00:46:01;21.2;;;14.8;;
73421;SDS011;61637;47.760;-122.022;2022-12-07T00:48:00;17.3;;;15.4;;
73421;SDS011;61637;47.760;-122.022;2022-12-07T00:50:00;17.0;;;15.5;;
73421;SDS011;61637;47.760;-122.022;2022-12-07T00:52:00;16.5;;;14.9;;
73421;SDS011;61637;47.760;-122.022;2022-12-07T00:54:01;17.3;;;15.8;;
73421;SDS011;61637;47.760;-122.022;2022-12-07T00:56:05;16.9;;;15.5;;
73421;SDS011;61637;47.760;-122.022;2022-12-07T00:58:01;17.5;;;16.0;;
73421;SDS011;61637;47.760;-122.022;2022-12-07T01:00:00;18.3;;;16.7;;
73421;SDS011;61637;47.760;-122.022;2022-12-07T01:02:01;31.5;;;17.4;;
73421;SDS011;61637;47.760;-122.022;2022-12-07T01:04:02;17.8;;;16.3;;
73421;SDS011;61637;47.760;-122.022;2022-12-07T01:06:03;73.4;;;19.5;;
73421;SDS011;61637;47.760;-122.022;2022-12-07T01:08:01;18.8;;;17.3;;
73421;SDS011;61637;47.760;-122.022;2022-12-07T01:10:08;17.7;;;16.2;;
73421;SDS011;61637;47.760;-122.022;2022-12-07T01:12:01;17.8;;;16.2;;
73421;SDS011;61637;47.760;-122.022;2022-12-07T01:14:01;17.9;;;16.4;;
73421;SDS011;61637;47.760;-122.022;2022-12-07T01:16:03;17.3;;;15.8;;
73421;SDS011;61637;47.760;-122.022;2022-12-07T01:18:01;16.9;;;15.4;;
73421;SDS011;61637;47.760;-122.022;2022-12-07T01:20:01;16.8;;;15.4;;
73421;SDS011;61637;47.760;-122.022;2022-12-07T01:22:01;15.8;;;14.5;;
73421;SDS011;61637;47.760;-122.022;2022-12-07T01:24:02;16.0;;;14.7;;
73421;SDS011;61637;47.760;-122.022;2022-12-07T01:26:03;17.2;;;15.8;;
73421;SDS011;61637;47.760;-122.022;2022-12-07T01:28:00;16.6;;;15.2;;
73421;SDS011;61637;47.760;-122.022;2022-12-07T01:30:02;16.4;;;15.0;;
73421;SDS011;61637;47.760;-122.022;2022-12-07T01:32:00;16.4;;;15.0;;
73421;SDS011;61637;47.760;-122.022;2022-12-07T01:34:01;15.7;;;14.3;;
73421;SDS011;61637;47.760;-122.022;2022-12-07T01:36:02;16.4;;;15.1;;
73421;SDS011;61637;47.760;-122.022;2022-12-07T01:38:00;15.7;;;14.4;;
73421;SDS011;61637;47.760;-122.022;2022-12-07T01:40:01;15.6;;;14.3;;
73421;SDS011;61637;47.760;-122.022;2022-12-07T01:42:01;19.4;;;14.1;;
73421;SDS011;61637;47.760;-122.022;2022-12-07T01:44:13;16.1;;;14.5;;
73421;SDS011;61637;47.760;-122.022;2022-12-07T01:46:02;16.3;;;14.6;;
73421;SDS011;61637;47.760;-122.022;2022-12-07T01:48:01;15.1;;;13.8;;
73421;SDS011;61637;47.760;-122.022;2022-12-07T01:50:00;15.8;;;14.4;;
73421;SDS011;61637;47.760;-122.022;2022-12-07T01:52:10;16.2;;;14.8;;
73421;SDS011;61637;47.760;-122.022;2022-12-07T01:54:01;19.7;;;14.1;;
73421;SDS011;61637;47.760;-122.022;2022-12-07T01:56:01;14.7;;;13.4;;
73421;SDS011;61637;47.760;-122.022;2022-12-07T01:58:02;17.2;;;13.1;;
73421;SDS011;61637;47.760;-122.022;2022-12-07T02:00:01;14.9;;;13.7;;
73421;SDS011;61637;47.760;-122.022;2022-12-07T02:02:02;13.8;;;12.6;;
73421;SDS011;61637;47.760;-122.022;2022-12-07T02:04:01;27.6;;;14.0;;
73421;SDS011;61637;47.760;-122.022;2022-12-07T02:06:01;33.4;;;13.9;;
73421;SDS011;61637;47.760;-122.022;2022-12-07T02:08:02;17.5;;;13.3;;
73421;SDS011;61637;47.760;-122.022;2022-12-07T02:10:12;25.1;;;13.9;;
73421;SDS011;61637;47.760;-122.022;2022-12-07T02:12:01;16.0;;;14.7;;
73421;SDS011;61637;47.760;-122.022;2022-12-07T02:14:01;15.3;;;14.0;;
73421;SDS011;61637;47.760;-122.022;2022-12-07T02:16:11;15.0;;;13.7;;
73421;SDS011;61637;47.760;-122.022;2022-12-07T02:18:07;14.8;;;13.4;;
73421;SDS011;61637;47.760;-122.022;2022-12-07T02:22:13;13.3;;;12.2;;
73421;SDS011;61637;47.760;-122.022;2022-12-07T02:24:14;12.7;;;11.6;;
73421;SDS011;61637;47.760;-122.022;2022-12-07T02:26:17;12.8;;;11.6;;
73421;SDS011;61637;47.760;-122.022;2022-12-07T02:28:05;19.6;;;10.5;;
73421;SDS011;61637;47.760;-122.022;2022-12-07T02:30:03;26.0;;;11.6;;
73421;SDS011;61637;47.760;-122.022;2022-12-07T02:32:06;12.8;;;11.7;;
73421;SDS011;61637;47.760;-122.022;2022-12-07T02:34:07;12.5;;;11.2;;
73421;SDS011;61637;47.760;-122.022;2022-12-07T02:36:04;13.4;;;12.3;;
73421;SDS011;61637;47.760;-122.022;2022-12-07T02:38:07;15.1;;;13.7;;
73421;SDS011;61637;47.760;-122.022;2022-12-07T02:40:07;13.6;;;12.5;;
73421;SDS011;61637;47.760;-122.022;2022-12-07T02:42:07;16.3;;;13.6;;
73421;SDS011;61637;47.760;-122.022;2022-12-07T02:44:03;16.3;;;13.6;;
73421;SDS011;61637;47.760;-122.022;2022-12-07T02:46:04;19.0;;;13.2;;
73421;SDS011;61637;47.760;-122.022;2022-12-07T02:48:02;14.5;;;13.1;;
73421;SDS011;61637;47.760;-122.022;2022-12-07T02:50:04;17.1;;;12.1;;
73421;SDS011;61637;47.760;-122.022;2022-12-07T02:52:01;13.3;;;12.2;;
73421;SDS011;61637;47.760;-122.022;2022-12-07T02:54:01;13.0;;;11.9;;
73421;SDS011;61637;47.760;-122.022;2022-12-07T02:56:07;13.5;;;12.3;;
73421;SDS011;61637;47.760;-122.022;2022-12-07T02:58:17;15.6;;;11.8;;
73421;SDS011;61637;47.760;-122.022;2022-12-07T03:00:05;15.6;;;11.8;;
73421;SDS011;61637;47.760;-122.022;2022-12-07T03:02:10;12.7;;;11.4;;
73421;SDS011;61637;47.760;-122.022;2022-12-07T03:04:11;12.2;;;11.0;;
73421;SDS011;61637;47.760;-122.022;2022-12-07T03:06:10;19.4;;;10.6;;
73421;SDS011;61637;47.760;-122.022;2022-12-07T03:08:06;10.9;;;9.8;;
73421;SDS011;61637;47.760;-122.022;2022-12-07T03:10:08;13.8;;;12.6;;
73421;SDS011;61637;47.760;-122.022;2022-12-07T03:12:08;13.6;;;11.3;;
73421;SDS011;61637;47.760;-122.022;2022-12-07T03:14:06;12.9;;;11.6;;
73421;SDS011;61637;47.760;-122.022;2022-12-07T03:16:04;17.7;;;12.3;;
73421;SDS011;61637;47.760;-122.022;2022-12-07T03:18:03;13.1;;;11.9;;
73421;SDS011;61637;47.760;-122.022;2022-12-07T03:20:04;18.0;;;13.1;;
73421;SDS011;61637;47.760;-122.022;2022-12-07T03:22:03;15.5;;;14.2;;
73421;SDS011;61637;47.760;-122.022;2022-12-07T03:24:05;28.7;;;13.1;;
73421;SDS011;61637;47.760;-122.022;2022-12-07T03:26:02;15.4;;;14.1;;
73421;SDS011;61637;47.760;-122.022;2022-12-07T03:28:04;15.0;;;13.7;;
73421;SDS011;61637;47.760;-122.022;2022-12-07T03:30:06;15.0;;;13.8;;
73421;SDS011;61637;47.760;-122.022;2022-12-07T03:32:03;15.7;;;14.4;;
73421;SDS011;61637;47.760;-122.022;2022-12-07T03:34:06;15.3;;;14.0;;
73421;SDS011;61637;47.760;-122.022;2022-12-07T03:36:05;15.3;;;13.9;;
73421;SDS011;61637;47.760;-122.022;2022-12-07T03:38:08;15.0;;;13.4;;
73421;SDS011;61637;47.760;-122.022;2022-12-07T03:40:10;17.1;;;11.7;;
73421;SDS011;61637;47.760;-122.022;2022-12-07T03:42:04;16.3;;;13.0;;
73421;SDS011;61637;47.760;-122.022;2022-12-07T03:44:01;34.5;;;13.7;;
73421;SDS011;61637;47.760;-122.022;2022-12-07T03:46:07;15.2;;;13.8;;
73421;SDS011;61637;47.760;-122.022;2022-12-07T03:48:06;82.2;;;15.5;;
73421;SDS011;61637;47.760;-122.022;2022-12-07T03:50:06;20.9;;;15.5;;
73421;SDS011;61637;47.760;-122.022;2022-12-07T03:52:11;15.7;;;14.4;;
73421;SDS011;61637;47.760;-122.022;2022-12-07T03:54:08;16.0;;;14.7;;
73421;SDS011;61637;47.760;-122.022;2022-12-07T03:56:02;15.9;;;14.6;;
73421;SDS011;61637;47.760;-122.022;2022-12-07T03:58:04;16.0;;;14.5;;
73421;SDS011;61637;47.760;-122.022;2022-12-07T04:00:03;59.3;;;13.9;;
73421;SDS011;61637;47.760;-122.022;2022-12-07T04:02:03;13.6;;;12.2;;
73421;SDS011;61637;47.760;-122.022;2022-12-07T04:04:00;14.3;;;13.0;;
73421;SDS011;61637;47.760;-122.022;2022-12-07T04:06:01;14.9;;;13.6;;
73421;SDS011;61637;47.760;-122.022;2022-12-07T04:08:01;24.8;;;13.5;;
73421;SDS011;61637;47.760;-122.022;2022-12-07T04:10:01;31.5;;;13.4;;
73421;SDS011;61637;47.760;-122.022;2022-12-07T04:12:00;43.4;;;13.8;;
73421;SDS011;61637;47.760;-122.022;2022-12-07T04:14:00;16.9;;;13.5;;
73421;SDS011;61637;47.760;-122.022;2022-12-07T04:16:00;14.9;;;13.6;;
73421;SDS011;61637;47.760;-122.022;2022-12-07T04:18:01;17.0;;;15.4;;
73421;SDS011;61637;47.760;-122.022;2022-12-07T04:20:01;18.1;;;14.6;;
73421;SDS011;61637;47.760;-122.022;2022-12-07T04:22:03;15.2;;;13.9;;
73421;SDS011;61637;47.760;-122.022;2022-12-07T04:24:00;15.0;;;13.6;;
73421;SDS011;61637;47.760;-122.022;2022-12-07T04:26:00;15.4;;;14.0;;
73421;SDS011;61637;47.760;-122.022;2022-12-07T04:28:01;19.3;;;12.8;;
73421;SDS011;61637;47.760;-122.022;2022-12-07T04:30:01;14.5;;;13.3;;
73421;SDS011;61637;47.760;-122.022;2022-12-07T04:32:00;17.6;;;13.8;;
73421;SDS011;61637;47.760;-122.022;2022-12-07T04:34:01;22.0;;;13.5;;
73421;SDS011;61637;47.760;-122.022;2022-12-07T04:36:00;14.9;;;13.5;;
73421;SDS011;61637;47.760;-122.022;2022-12-07T04:38:00;26.6;;;14.2;;
73421;SDS011;61637;47.760;-122.022;2022-12-07T04:40:01;15.9;;;13.0;;
73421;SDS011;61637;47.760;-122.022;2022-12-07T04:42:02;14.1;;;12.9;;
73421;SDS011;61637;47.760;-122.022;2022-12-07T04:44:03;13.6;;;12.4;;
73421;SDS011;61637;47.760;-122.022;2022-12-07T04:46:02;13.8;;;12.6;;
73421;SDS011;61637;47.760;-122.022;2022-12-07T04:48:01;13.6;;;12.2;;
73421;SDS011;61637;47.760;-122.022;2022-12-07T04:50:00;14.0;;;12.5;;
73421;SDS011;61637;47.760;-122.022;2022-12-07T04:52:01;14.4;;;13.2;;
73421;SDS011;61637;47.760;-122.022;2022-12-07T04:54:01;14.0;;;12.7;;
73421;SDS011;61637;47.760;-122.022;2022-12-07T04:56:01;14.0;;;12.9;;
73421;SDS011;61637;47.760;-122.022;2022-12-07T04:58:01;14.5;;;13.2;;
73421;SDS011;61637;47.760;-122.022;2022-12-07T05:00:00;13.9;;;12.8;;
73421;SDS011;61637;47.760;-122.022;2022-12-07T05:02:00;34.9;;;14.0;;
73421;SDS011;61637;47.760;-122.022;2022-12-07T05:04:01;43.2;;;13.3;;
73421;SDS011;61637;47.760;-122.022;2022-12-07T05:06:00;26.1;;;12.0;;
73421;SDS011;61637;47.760;-122.022;2022-12-07T05:08:01;13.7;;;12.4;;
73421;SDS011;61637;47.760;-122.022;2022-12-07T05:10:01;12.9;;;11.7;;
73421;SDS011;61637;47.760;-122.022;2022-12-07T05:12:00;31.4;;;12.8;;
73421;SDS011;61637;47.760;-122.022;2022-12-07T05:14:02;16.5;;;12.3;;
73421;SDS011;61637;47.760;-122.022;2022-12-07T05:16:01;14.1;;;12.6;;
73421;SDS011;61637;47.760;-122.022;2022-12-07T05:18:01;14.1;;;12.9;;
73421;SDS011;61637;47.760;-122.022;2022-12-07T05:20:00;14.7;;;13.5;;
73421;SDS011;61637;47.760;-122.022;2022-12-07T05:22:01;32.6;;;12.0;;
73421;SDS011;61637;47.760;-122.022;2022-12-07T05:24:01;16.7;;;12.1;;
73421;SDS011;61637;47.760;-122.022;2022-12-07T05:26:00;14.6;;;13.3;;
73421;SDS011;61637;47.760;-122.022;2022-12-07T05:28:00;14.6;;;13.4;;
73421;SDS011;61637;47.760;-122.022;2022-12-07T05:30:01;14.6;;;13.1;;
73421;SDS011;61637;47.760;-122.022;2022-12-07T05:32:01;20.2;;;12.7;;
73421;SDS011;61637;47.760;-122.022;2022-12-07T05:34:02;61.4;;;13.6;;
73421;SDS011;61637;47.760;-122.022;2022-12-07T05:36:00;30.9;;;13.5;;
73421;SDS011;61637;47.760;-122.022;2022-12-07T05:38:00;27.4;;;13.9;;
73421;SDS011;61637;47.760;-122.022;2022-12-07T05:40:01;15.3;;;13.7;;
73421;SDS011;61637;47.760;-122.022;2022-12-07T05:42:00;15.4;;;14.0;;
73421;SDS011;61637;47.760;-122.022;2022-12-07T05:44:00;15.5;;;14.0;;
73421;SDS011;61637;47.760;-122.022;2022-12-07T05:46:01;15.3;;;13.8;;
73421;SDS011;61637;47.760;-122.022;2022-12-07T05:48:00;15.1;;;13.6;;
73421;SDS011;61637;47.760;-122.022;2022-12-07T05:50:01;14.9;;;13.7;;
73421;SDS011;61637;47.760;-122.022;2022-12-07T05:52:01;13.8;;;12.4;;
73421;SDS011;61637;47.760;-122.022;2022-12-07T05:54:01;15.0;;;13.4;;
73421;SDS011;61637;47.760;-122.022;2022-12-07T05:56:00;13.3;;;12.0;;
73421;SDS011;61637;47.760;-122.022;2022-12-07T05:58:01;45.6;;;14.2;;
73421;SDS011;61637;47.760;-122.022;2022-12-07T06:00:01;15.1;;;13.8;;
73421;SDS011;61637;47.760;-122.022;2022-12-07T06:02:03;34.3;;;14.0;;
73421;SDS011;61637;47.760;-122.022;2022-12-07T06:04:01;43.9;;;14.9;;
73421;SDS011;61637;47.760;-122.022;2022-12-07T06:06:01;14.8;;;13.2;;
73421;SDS011;61637;47.760;-122.022;2022-12-07T06:08:00;15.2;;;13.8;;
73421;SDS011;61637;47.760;-122.022;2022-12-07T06:10:01;14.2;;;13.0;;
73421;SDS011;61637;47.760;-122.022;2022-12-07T06:12:02;51.0;;;14.5;;
73421;SDS011;61637;47.760;-122.022;2022-12-07T06:14:00;153.2;;;16.1;;
73421;SDS011;61637;47.760;-122.022;2022-12-07T06:16:00;16.7;;;12.6;;
73421;SDS011;61637;47.760;-122.022;2022-12-07T06:18:01;17.9;;;12.7;;
73421;SDS011;61637;47.760;-122.022;2022-12-07T06:20:00;84.4;;;13.9;;
73421;SDS011;61637;47.760;-122.022;2022-12-07T06:22:02;45.6;;;13.9;;
73421;SDS011;61637;47.760;-122.022;2022-12-07T06:24:00;50.4;;;13.7;;
73421;SDS011;61637;47.760;-122.022;2022-12-07T06:26:01;20.2;;;13.2;;
73421;SDS011;61637;47.760;-122.022;2022-12-07T06:28:00;15.5;;;12.8;;
73421;SDS011;61637;47.760;-122.022;2022-12-07T06:30:01;26.0;;;13.0;;
73421;SDS011;61637;47.760;-122.022;2022-12-07T06:32:00;53.8;;;13.2;;
73421;SDS011;61637;47.760;-122.022;2022-12-07T06:34:02;27.0;;;13.2;;
73421;SDS011;61637;47.760;-122.022;2022-12-07T06:36:00;29.2;;;12.7;;
73421;SDS011;61637;47.760;-122.022;2022-12-07T06:38:01;25.6;;;12.2;;
73421;SDS011;61637;47.760;-122.022;2022-12-07T06:40:00;19.2;;;13.4;;
73421;SDS011;61637;47.760;-122.022;2022-12-07T06:42:01;14.9;;;13.6;;
73421;SDS011;61637;47.760;-122.022;2022-12-07T06:44:00;20.0;;;13.7;;
73421;SDS011;61637;47.760;-122.022;2022-12-07T06:46:01;13.9;;;12.5;;
73421;SDS011;61637;47.760;-122.022;2022-12-07T06:48:01;22.9;;;13.7;;
73421;SDS011;61637;47.760;-122.022;2022-12-07T06:50:01;17.3;;;12.6;;
73421;SDS011;61637;47.760;-122.022;2022-12-07T06:52:00;14.1;;;12.8;;
73421;SDS011;61637;47.760;-122.022;2022-12-07T06:54:01;14.5;;;13.3;;
73421;SDS011;61637;47.760;-122.022;2022-12-07T06:56:01;14.4;;;13.2;;
73421;SDS011;61637;47.760;-122.022;2022-12-07T06:58:01;16.4;;;12.9;;
73421;SDS011;61637;47.760;-122.022;2022-12-07T07:00:01;13.3;;;12.1;;
73421;SDS011;61637;47.760;-122.022;2022-12-07T07:02:00;13.3;;;12.1;;
73421;SDS011;61637;47.760;-122.022;2022-12-07T07:04:01;36.6;;;12.7;;
73421;SDS011;61637;47.760;-122.022;2022-12-07T07:06:01;15.2;;;13.8;;
73421;SDS011;61637;47.760;-122.022;2022-12-07T07:08:00;13.5;;;12.2;;
73421;SDS011;61637;47.760;-122.022;2022-12-07T07:10:01;25.9;;;12.8;;
73421;SDS011;61637;47.760;-122.022;2022-12-07T07:12:00;50.4;;;11.4;;
73421;SDS011;61637;47.760;-122.022;2022-12-07T07:14:00;32.0;;;11.9;;
73421;SDS011;61637;47.760;-122.022;2022-12-07T07:16:01;26.8;;;11.9;;
73421;SDS011;61637;47.760;-122.022;2022-12-07T07:18:01;26.4;;;12.6;;
73421;SDS011;61637;47.760;-122.022;2022-12-07T07:20:00;14.0;;;12.6;;
73421;SDS011;61637;47.760;-122.022;2022-12-07T07:22:01;13.9;;;12.5;;
73421;SDS011;61637;47.760;-122.022;2022-12-07T07:24:01;15.1;;;13.4;;
73421;SDS011;61637;47.760;-122.022;2022-12-07T07:26:00;23.4;;;12.6;;
73421;SDS011;61637;47.760;-122.022;2022-12-07T07:28:01;13.9;;;12.7;;
73421;SDS011;61637;47.760;-122.022;2022-12-07T07:30:01;14.6;;;13.2;;
73421;SDS011;61637;47.760;-122.022;2022-12-07T07:32:00;14.7;;;13.5;;
73421;SDS011;61637;47.760;-122.022;2022-12-07T07:34:01;14.6;;;13.2;;
73421;SDS011;61637;47.760;-122.022;2022-12-07T07:36:00;34.2;;;13.4;;
73421;SDS011;61637;47.760;-122.022;2022-12-07T07:38:01;13.9;;;12.4;;
73421;SDS011;61637;47.760;-122.022;2022-12-07T07:40:01;13.2;;;12.0;;
73421;SDS011;61637;47.760;-122.022;2022-12-07T07:42:00;12.8;;;11.0;;
73421;SDS011;61637;47.760;-122.022;2022-12-07T07:44:01;12.7;;;11.4;;
73421;SDS011;61637;47.760;-122.022;2022-12-07T07:46:01;23.1;;;12.2;;
73421;SDS011;61637;47.760;-122.022;2022-12-07T07:48:00;12.3;;;11.2;;
73421;SDS011;61637;47.760;-122.022;2022-12-07T07:50:00;13.9;;;11.9;;
73421;SDS011;61637;47.760;-122.022;2022-12-07T07:52:00;13.3;;;12.2;;
73421;SDS011;61637;47.760;-122.022;2022-12-07T07:54:00;12.9;;;11.8;;
73421;SDS011;61637;47.760;-122.022;2022-12-07T07:56:01;41.4;;;11.7;;
73421;SDS011;61637;47.760;-122.022;2022-12-07T07:58:01;11.9;;;10.9;;
73421;SDS011;61637;47.760;-122.022;2022-12-07T08:00:02;12.5;;;11.5;;
73421;SDS011;61637;47.760;-122.022;2022-12-07T08:02:00;16.5;;;11.8;;
73421;SDS011;61637;47.760;-122.022;2022-12-07T08:04:00;11.5;;;10.4;;
73421;SDS011;61637;47.760;-122.022;2022-12-07T08:06:02;11.5;;;9.9;;
73421;SDS011;61637;47.760;-122.022;2022-12-07T08:08:00;12.0;;;11.0;;
73421;SDS011;61637;47.760;-122.022;2022-12-07T08:10:01;54.2;;;11.4;;
73421;SDS011;61637;47.760;-122.022;2022-12-07T08:12:00;33.2;;;11.2;;
73421;SDS011;61637;47.760;-122.022;2022-12-07T08:14:01;16.2;;;10.9;;
73421;SDS011;61637;47.760;-122.022;2022-12-07T08:16:05;23.7;;;10.5;;
73421;SDS011;61637;47.760;-122.022;2022-12-07T08:18:01;11.7;;;10.5;;
73421;SDS011;61637;47.760;-122.022;2022-12-07T08:20:00;10.1;;;9.1;;
73421;SDS011;61637;47.760;-122.022;2022-12-07T08:22:02;11.9;;;10.1;;
73421;SDS011;61637;47.760;-122.022;2022-12-07T08:24:01;12.3;;;11.2;;
73421;SDS011;61637;47.760;-122.022;2022-12-07T08:26:01;53.5;;;11.0;;
73421;SDS011;61637;47.760;-122.022;2022-12-07T08:28:02;14.7;;;11.4;;
73421;SDS011;61637;47.760;-122.022;2022-12-07T08:30:00;55.4;;;13.0;;
73421;SDS011;61637;47.760;-122.022;2022-12-07T08:32:01;43.8;;;11.0;;
73421;SDS011;61637;47.760;-122.022;2022-12-07T08:34:01;16.7;;;10.8;;
73421;SDS011;61637;47.760;-122.022;2022-12-07T08:36:02;13.0;;;11.8;;
73421;SDS011;61637;47.760;-122.022;2022-12-07T08:38:01;35.7;;;10.9;;
73421;SDS011;61637;47.760;-122.022;2022-12-07T08:40:00;13.1;;;12.0;;
73421;SDS011;61637;47.760;-122.022;2022-12-07T08:42:01;14.6;;;10.6;;
73421;SDS011;61637;47.760;-122.022;2022-12-07T08:44:01;13.1;;;11.9;;
73421;SDS011;61637;47.760;-122.022;2022-12-07T08:46:05;14.0;;;12.8;;
73421;SDS011;61637;47.760;-122.022;2022-12-07T08:48:06;13.8;;;12.6;;
73421;SDS011;61637;47.760;-122.022;2022-12-07T08:50:02;15.6;;;12.0;;
73421;SDS011;61637;47.760;-122.022;2022-12-07T08:52:01;10.7;;;9.7;;
73421;SDS011;61637;47.760;-122.022;2022-12-07T08:54:04;12.1;;;11.1;;
73421;SDS011;61637;47.760;-122.022;2022-12-07T08:56:01;9.9;;;9.0;;
73421;SDS011;61637;47.760;-122.022;2022-12-07T08:58:02;9.7;;;8.8;;
73421;SDS011;61637;47.760;-122.022;2022-12-07T09:00:02;12.2;;;11.1;;
73421;SDS011;61637;47.760;-122.022;2022-12-07T09:02:00;13.6;;;12.5;;
73421;SDS011;61637;47.760;-122.022;2022-12-07T09:04:00;13.7;;;12.6;;
73421;SDS011;61637;47.760;-122.022;2022-12-07T09:06:00;13.0;;;11.7;;
73421;SDS011;61637;47.760;-122.022;2022-12-07T09:08:02;52.5;;;12.6;;
73421;SDS011;61637;47.760;-122.022;2022-12-07T09:10:01;13.1;;;11.7;;
73421;SDS011;61637;47.760;-122.022;2022-12-07T09:12:01;20.1;;;12.4;;
73421;SDS011;61637;47.760;-122.022;2022-12-07T09:14:01;31.7;;;12.6;;
73421;SDS011;61637;47.760;-122.022;2022-12-07T09:16:00;13.4;;;12.1;;
73421;SDS011;61637;47.760;-122.022;2022-12-07T09:18:01;15.7;;;12.1;;
73421;SDS011;61637;47.760;-122.022;2022-12-07T09:20:01;26.5;;;11.2;;
73421;SDS011;61637;47.760;-122.022;2022-12-07T09:22:02;104.4;;;11.7;;
73421;SDS011;61637;47.760;-122.022;2022-12-07T09:24:00;13.1;;;11.9;;
73421;SDS011;61637;47.760;-122.022;2022-12-07T09:26:01;12.5;;;11.3;;
73421;SDS011;61637;47.760;-122.022;2022-12-07T09:28:01;81.7;;;12.9;;
73421;SDS011;61637;47.760;-122.022;2022-12-07T09:30:01;45.1;;;11.8;;
73421;SDS011;61637;47.760;-122.022;2022-12-07T09:32:00;12.1;;;10.8;;
73421;SDS011;61637;47.760;-122.022;2022-12-07T09:34:01;14.4;;;11.2;;
73421;SDS011;61637;47.760;-122.022;2022-12-07T09:36:00;12.2;;;11.0;;
73421;SDS011;61637;47.760;-122.022;2022-12-07T09:38:00;21.5;;;11.6;;
73421;SDS011;61637;47.760;-122.022;2022-12-07T09:40:01;13.0;;;11.9;;
73421;SDS011;61637;47.760;-122.022;2022-12-07T09:42:04;30.0;;;12.0;;
73421;SDS011;61637;47.760;-122.022;2022-12-07T09:44:04;20.1;;;12.4;;
73421;SDS011;61637;47.760;-122.022;2022-12-07T09:46:01;14.3;;;12.8;;
73421;SDS011;61637;47.760;-122.022;2022-12-07T09:48:02;13.8;;;12.5;;
73421;SDS011;61637;47.760;-122.022;2022-12-07T09:50:05;13.7;;;12.2;;
73421;SDS011;61637;47.760;-122.022;2022-12-07T09:52:03;14.5;;;13.1;;
73421;SDS011;61637;47.760;-122.022;2022-12-07T09:54:02;14.1;;;12.8;;
73421;SDS011;61637;47.760;-122.022;2022-12-07T09:56:01;13.7;;;12.5;;
73421;SDS011;61637;47.760;-122.022;2022-12-07T09:58:01;14.2;;;12.3;;
73421;SDS011;61637;47.760;-122.022;2022-12-07T10:00:03;83.8;;;15.0;;
73421;SDS011;61637;47.760;-122.022;2022-12-07T10:02:21;15.2;;;13.8;;
73421;SDS011;61637;47.760;-122.022;2022-12-07T10:04:09;14.4;;;13.1;;
73421;SDS011;61637;47.760;-122.022;2022-12-07T10:06:02;12.8;;;11.7;;
73421;SDS011;61637;47.760;-122.022;2022-12-07T10:08:00;13.7;;;12.6;;
73421;SDS011;61637;47.760;-122.022;2022-12-07T10:10:04;14.2;;;12.7;;
73421;SDS011;61637;47.760;-122.022;2022-12-07T10:12:04;17.6;;;13.1;;
73421;SDS011;61637;47.760;-122.022;2022-12-07T10:14:11;21.5;;;13.0;;
73421;SDS011;61637;47.760;-122.022;2022-12-07T10:16:01;37.9;;;13.0;;
73421;SDS011;61637;47.760;-122.022;2022-12-07T10:18:01;38.9;;;13.4;;
73421;SDS011;61637;47.760;-122.022;2022-12-07T10:20:15;24.3;;;12.5;;
73421;SDS011;61637;47.760;-122.022;2022-12-07T10:22:10;13.8;;;12.5;;
73421;SDS011;61637;47.760;-122.022;2022-12-07T10:24:03;45.7;;;13.2;;
73421;SDS011;61637;47.760;-122.022;2022-12-07T10:28:10;36.0;;;13.5;;
73421;SDS011;61637;47.760;-122.022;2022-12-07T10:30:12;16.3;;;12.5;;
73421;SDS011;61637;47.760;-122.022;2022-12-07T10:32:03;12.6;;;11.5;;
73421;SDS011;61637;47.760;-122.022;2022-12-07T10:34:01;14.8;;;12.1;;
73421;SDS011;61637;47.760;-122.022;2022-12-07T10:36:19;78.9;;;13.8;;
73421;SDS011;61637;47.760;-122.022;2022-12-07T10:38:00;14.8;;;13.2;;
73421;SDS011;61637;47.760;-122.022;2022-12-07T10:40:00;13.2;;;11.8;;
73421;SDS011;61637;47.760;-122.022;2022-12-07T10:42:03;13.2;;;12.1;;
73421;SDS011;61637;47.760;-122.022;2022-12-07T10:44:00;13.3;;;12.2;;
73421;SDS011;61637;47.760;-122.022;2022-12-07T10:48:07;14.1;;;12.9;;
73421;SDS011;61637;47.760;-122.022;2022-12-07T10:50:21;13.3;;;12.2;;
73421;SDS011;61637;47.760;-122.022;2022-12-07T10:52:07;15.6;;;14.2;;
73421;SDS011;61637;47.760;-122.022;2022-12-07T10:54:11;14.1;;;12.8;;
73421;SDS011;61637;47.760;-122.022;2022-12-07T10:56:16;20.3;;;11.9;;
73421;SDS011;61637;47.760;-122.022;2022-12-07T10:58:07;14.1;;;10.6;;
73421;SDS011;61637;47.760;-122.022;2022-12-07T11:00:08;30.7;;;11.4;;
73421;SDS011;61637;47.760;-122.022;2022-12-07T11:02:15;13.3;;;10.0;;
73421;SDS011;61637;47.760;-122.022;2022-12-07T11:04:14;12.2;;;11.1;;
73421;SDS011;61637;47.760;-122.022;2022-12-07T11:06:10;15.9;;;11.0;;
73421;SDS011;61637;47.760;-122.022;2022-12-07T11:08:09;13.6;;;12.4;;
73421;SDS011;61637;47.760;-122.022;2022-12-07T11:10:07;13.5;;;12.3;;
73421;SDS011;61637;47.760;-122.022;2022-12-07T11:12:06;12.3;;;11.1;;
73421;SDS011;61637;47.760;-122.022;2022-12-07T11:14:10;12.6;;;11.5;;
73421;SDS011;61637;47.760;-122.022;2022-12-07T11:16:16;11.9;;;10.8;;
73421;SDS011;61637;47.760;-122.022;2022-12-07T11:18:04;14.7;;;11.1;;
73421;SDS011;61637;47.760;-122.022;2022-12-07T11:20:05;13.2;;;10.6;;
73421;SDS011;61637;47.760;-122.022;2022-12-07T11:22:04;14.4;;;10.3;;
73421;SDS011;61637;47.760;-122.022;2022-12-07T11:24:05;11.5;;;10.5;;
73421;SDS011;61637;47.760;-122.022;2022-12-07T11:26:05;13.2;;;12.0;;
73421;SDS011;61637;47.760;-122.022;2022-12-07T11:28:14;25.7;;;12.8;;
73421;SDS011;61637;47.760;-122.022;2022-12-07T11:30:08;31.6;;;13.1;;
73421;SDS011;61637;47.760;-122.022;2022-12-07T11:32:09;13.5;;;12.3;;
73421;SDS011;61637;47.760;-122.022;2022-12-07T11:34:08;39.6;;;12.3;;
73421;SDS011;61637;47.760;-122.022;2022-12-07T11:36:06;39.6;;;12.3;;